createdAt,value
2019-04-28T00:00:51.270Z,9.35
2019-04-28T00:03:26.267Z,8.80
2019-04-28T00:11:08.222Z,8.45
2019-04-28T00:16:16.323Z,8.45
2019-04-28T00:18:51.075Z,7.95
2019-04-28T00:21:26.884Z,8.40
2019-04-28T00:24:11.556Z,7.55
2019-04-28T00:26:56.081Z,7.75
2019-04-28T00:29:38.604Z,7.87
2019-04-28T00:32:06.335Z,7.87
2019-04-28T00:34:41.349Z,8.68
2019-04-28T00:37:16.914Z,7.95
2019-04-28T00:39:51.086Z,7.87
2019-04-28T00:44:58.248Z,7.58
2019-04-28T00:50:07.265Z,7.22
2019-04-28T00:52:41.874Z,6.83
2019-04-28T00:55:16.047Z,7.75
2019-04-28T00:57:50.953Z,7.55
2019-04-28T01:00:26.813Z,6.83
2019-04-28T01:03:02.159Z,7.12
2019-04-28T01:05:36.557Z,6.90
2019-04-28T01:08:11.009Z,7.67
2019-04-28T01:10:45.205Z,7.58
2019-04-28T01:16:06.426Z,7.30
2019-04-28T01:18:47.887Z,7.08
2019-04-28T01:21:23.255Z,7.25
2019-04-28T01:23:57.123Z,7.20
2019-04-28T01:26:31.059Z,6.97
2019-04-28T01:29:05.028Z,7.03
2019-04-28T01:31:52.613Z,7.28
2019-04-28T01:34:26.618Z,7.25
2019-04-28T01:37:00.673Z,7.78
2019-04-28T01:39:34.781Z,7.97
2019-04-28T01:44:42.001Z,8.00
2019-04-28T01:47:20.363Z,8.13
2019-04-28T01:49:54.445Z,8.13
2019-04-28T01:52:30.149Z,7.83
2019-04-28T01:55:05.155Z,7.70
2019-04-28T01:57:40.034Z,7.40
2019-04-28T02:00:23.089Z,8.00
2019-04-28T02:02:51.655Z,7.95
2019-04-28T02:05:25.549Z,7.92
2019-04-28T02:08:00.333Z,7.72
2019-04-28T02:10:34.281Z,8.25
2019-04-28T02:13:09.601Z,7.70
2019-04-28T02:15:43.775Z,7.67
2019-04-28T02:18:17.685Z,7.92
2019-04-28T02:20:53.329Z,8.25
2019-04-28T02:23:29.875Z,8.25
2019-04-28T02:26:04.000Z,8.90
2019-04-28T02:28:37.789Z,8.73
2019-04-28T02:31:14.686Z,8.25
2019-04-28T02:33:50.926Z,8.80
2019-04-28T02:36:24.271Z,8.90
2019-04-28T02:38:58.051Z,8.60
2019-04-28T02:41:33.860Z,8.30
2019-04-28T02:44:10.296Z,8.40
2019-04-28T02:46:43.775Z,8.30
2019-04-28T02:52:15.183Z,8.60
2019-04-28T02:54:50.733Z,8.18
2019-04-28T02:57:24.962Z,8.50
2019-04-28T03:00:00.478Z,8.50
2019-04-28T03:02:34.674Z,8.13
2019-04-28T03:05:11.443Z,7.97
2019-04-28T03:07:44.457Z,8.00
2019-04-28T03:12:52.229Z,7.97
2019-04-28T03:15:26.156Z,7.92
2019-04-28T03:18:01.887Z,8.03
2019-04-28T03:20:35.907Z,7.47
2019-04-28T03:28:30.783Z,7.30
2019-04-28T03:31:40.436Z,7.30
2019-04-28T03:33:48.542Z,7.50
2019-04-28T03:36:23.127Z,7.50
2019-04-28T03:38:53.697Z,6.47
2019-04-28T03:41:27.754Z,6.78
2019-04-28T03:46:36.351Z,6.85
2019-04-28T03:49:11.920Z,7.35
2019-04-28T03:51:45.784Z,7.25
2019-04-28T03:54:20.395Z,6.87
2019-04-28T03:56:54.357Z,7.87
2019-04-28T03:59:30.973Z,7.42
2019-04-28T04:02:04.096Z,6.97
2019-04-28T04:04:37.883Z,7.65
2019-04-28T04:07:11.712Z,8.00
2019-04-28T04:09:47.138Z,8.18
2019-04-28T04:12:22.742Z,8.13
2019-04-28T04:15:13.344Z,8.00
2019-04-28T04:18:03.747Z,7.78
2019-04-28T04:20:37.530Z,7.87
2019-04-28T04:23:11.612Z,7.47
2019-04-28T04:25:45.501Z,7.08
2019-04-28T04:28:20.613Z,7.17
2019-04-28T04:30:54.915Z,7.00
2019-04-28T04:38:40.049Z,7.08
2019-04-28T04:41:12.270Z,7.40
2019-04-28T04:43:46.075Z,7.08
2019-04-28T04:46:24.193Z,7.33
2019-04-28T04:49:00.394Z,7.33
2019-04-28T04:51:33.909Z,7.60
2019-04-28T04:54:10.618Z,6.92
2019-04-28T04:56:43.801Z,7.67
2019-04-28T05:02:09.822Z,7.05
2019-04-28T05:04:44.919Z,7.53
2019-04-28T05:07:19.668Z,7.00
2019-04-28T05:09:53.662Z,7.15
2019-04-28T05:12:27.464Z,7.50
2019-04-28T05:15:01.418Z,7.40
2019-04-28T05:17:35.288Z,6.72
2019-04-28T05:20:09.965Z,7.20
2019-04-28T05:22:50.257Z,6.60
2019-04-28T05:25:32.433Z,6.60
2019-04-28T05:28:04.631Z,6.58
2019-04-28T05:30:39.708Z,6.78
2019-04-28T05:33:15.625Z,7.28
2019-04-28T05:35:50.078Z,6.60
2019-04-28T05:38:23.978Z,6.87
2019-04-28T05:40:57.972Z,7.85
2019-04-28T05:46:05.218Z,5.22
2019-04-28T05:48:52.807Z,5.80
2019-04-28T05:51:34.195Z,5.20
2019-04-28T05:54:15.661Z,5.08
2019-04-28T05:57:02.353Z,4.60
2019-04-28T05:59:46.573Z,4.83
2019-04-28T06:02:39.557Z,5.10
2019-04-28T06:05:13.333Z,4.53
2019-04-28T06:08:03.875Z,4.97
2019-04-28T06:10:39.845Z,4.42
2019-04-28T06:13:13.741Z,5.33
2019-04-28T06:15:49.758Z,4.62
2019-04-28T06:18:23.773Z,5.10
2019-04-28T06:20:57.621Z,4.85
2019-04-28T06:23:31.515Z,4.55
2019-04-28T06:26:05.494Z,4.08
2019-04-28T06:28:39.333Z,4.40
2019-04-28T06:31:13.665Z,4.55
2019-04-28T06:33:47.553Z,4.25
2019-04-28T06:36:21.509Z,3.95
2019-04-28T06:38:55.463Z,4.25
2019-04-28T06:41:29.509Z,4.37
2019-04-28T06:46:36.840Z,4.00
2019-04-28T06:49:11.022Z,3.72
2019-04-28T06:51:46.897Z,3.80
2019-04-28T06:54:21.237Z,3.90
2019-04-28T06:56:55.349Z,3.77
2019-04-28T07:02:03.169Z,3.92
2019-04-28T07:07:10.590Z,5.45
2019-04-28T07:09:44.823Z,5.05
2019-04-28T07:12:19.308Z,4.70
2019-04-28T07:14:53.583Z,4.35
2019-04-28T07:17:27.664Z,4.78
2019-04-28T07:20:03.311Z,4.22
2019-04-28T07:22:37.765Z,3.67
2019-04-28T07:25:12.159Z,4.10
2019-04-28T07:27:46.050Z,3.90
2019-04-28T07:30:21.616Z,4.17
2019-04-28T07:32:55.807Z,4.08
2019-04-28T07:35:30.053Z,3.70
2019-04-28T07:40:37.738Z,3.85
2019-04-28T07:43:11.845Z,3.87
2019-04-28T07:48:18.847Z,4.47
2019-04-28T07:50:52.897Z,4.62
2019-04-28T07:56:01.563Z,4.17
2019-04-28T07:58:35.596Z,4.40
2019-04-28T08:06:20.033Z,4.45
2019-04-28T08:08:54.277Z,4.35
2019-04-28T08:11:28.344Z,4.47
2019-04-28T08:16:36.576Z,4.95
2019-04-28T08:21:44.224Z,5.17
2019-04-28T08:24:20.077Z,3.80
2019-04-28T08:26:54.387Z,4.20
2019-04-28T08:29:28.624Z,5.10
2019-04-28T08:32:20.779Z,4.85
2019-04-28T08:34:55.048Z,5.25
2019-04-28T08:37:29.095Z,4.33
2019-04-28T08:42:36.701Z,5.35
2019-04-28T08:45:10.905Z,4.30
2019-04-28T08:47:45.304Z,5.03
2019-04-28T08:50:19.166Z,8.45
2019-04-28T08:52:52.981Z,5.95
2019-04-28T08:55:27.211Z,4.20
2019-04-28T08:58:01.096Z,4.15
2019-04-28T09:00:35.052Z,4.28
2019-04-28T09:03:09.387Z,4.72
2019-04-28T09:05:43.495Z,4.00
2019-04-28T09:10:50.919Z,4.08
2019-04-28T09:13:25.050Z,4.60
2019-04-28T09:18:32.415Z,4.33
2019-04-28T09:23:39.775Z,4.10
2019-04-28T09:28:47.114Z,3.60
2019-04-28T09:33:54.515Z,3.80
2019-04-28T09:39:02.109Z,3.70
2019-04-28T09:41:37.770Z,4.40
2019-04-28T09:44:16.173Z,4.83
2019-04-28T09:46:51.748Z,4.00
2019-04-28T09:49:25.895Z,3.75
2019-04-28T09:54:32.961Z,4.08
2019-04-28T09:57:06.854Z,3.52
2019-04-28T09:59:40.696Z,4.12
2019-04-28T10:02:14.519Z,3.90
2019-04-28T10:04:48.409Z,3.52
2019-04-28T10:07:22.322Z,4.03
2019-04-28T10:09:56.343Z,3.90
2019-04-28T10:12:30.306Z,4.67
2019-04-28T10:15:05.836Z,4.28
2019-04-28T10:17:39.637Z,3.90
2019-04-28T10:20:13.587Z,4.90
2019-04-28T10:22:47.805Z,4.20
2019-04-28T10:25:21.630Z,3.90
2019-04-28T10:27:55.634Z,4.17
2019-04-28T10:33:03.277Z,4.80
2019-04-28T10:35:37.614Z,5.62
2019-04-28T10:38:11.768Z,5.53
2019-04-28T10:43:20.846Z,5.22
2019-04-28T10:48:28.333Z,5.05
2019-04-28T10:51:02.243Z,5.62
2019-04-28T10:53:36.301Z,4.95
2019-04-28T10:58:45.221Z,5.55
2019-04-28T11:01:19.529Z,5.40
2019-04-28T11:03:55.173Z,4.85
2019-04-28T11:06:29.611Z,5.95
2019-04-28T11:09:05.605Z,5.67
2019-04-28T11:11:39.689Z,5.75
2019-04-28T11:19:21.754Z,5.33
2019-04-28T11:24:29.035Z,5.65
2019-04-28T11:29:36.507Z,5.95
2019-04-28T11:32:10.822Z,6.08
2019-04-28T11:35:02.657Z,6.15
2019-04-28T11:37:36.652Z,5.90
2019-04-28T11:40:11.057Z,6.87
2019-04-28T11:42:45.094Z,7.05
2019-04-28T11:47:52.530Z,6.87
2019-04-28T11:50:26.627Z,6.42
2019-04-28T11:55:33.703Z,7.08
2019-04-28T11:58:08.139Z,7.30
2019-04-28T12:00:42.229Z,7.60
2019-04-28T12:05:51.369Z,6.25
2019-04-28T12:08:25.386Z,6.50
2019-04-28T12:14:07.101Z,6.30
2019-04-28T12:16:45.357Z,6.70
2019-04-28T12:19:20.741Z,6.40
2019-04-28T12:21:54.673Z,5.60
2019-04-28T12:24:28.757Z,6.03
2019-04-28T12:29:35.874Z,6.55
2019-04-28T12:34:43.335Z,6.15
2019-04-28T12:37:17.283Z,5.60
2019-04-28T12:39:51.199Z,5.95
2019-04-28T12:42:25.257Z,5.58
2019-04-28T12:47:33.423Z,5.22
2019-04-28T12:50:21.531Z,5.10
2019-04-28T12:52:55.523Z,4.65
2019-04-28T12:55:29.345Z,5.03
2019-04-28T12:58:05.096Z,5.40
2019-04-28T13:00:46.647Z,5.10
2019-04-28T13:03:38.645Z,5.37
2019-04-28T13:06:20.165Z,5.58
2019-04-28T13:08:54.110Z,6.65
2019-04-28T13:11:27.916Z,6.40
2019-04-28T13:14:01.936Z,6.60
2019-04-28T13:16:35.739Z,7.22
2019-04-28T13:19:09.596Z,7.58
2019-04-28T13:21:43.441Z,6.70
2019-04-28T13:24:17.503Z,6.90
2019-04-28T13:26:52.334Z,6.55
2019-04-28T13:29:26.493Z,7.00
2019-04-28T13:34:35.260Z,7.40
2019-04-28T13:37:09.590Z,7.25
2019-04-28T13:39:51.187Z,7.95
2019-04-28T13:42:25.383Z,8.58
2019-04-28T13:47:37.107Z,8.58
2019-04-28T13:50:19.878Z,8.58
2019-04-28T13:52:56.189Z,8.78
2019-04-28T13:55:40.732Z,8.85
2019-04-28T13:58:16.409Z,9.38
2019-04-28T14:01:10.000Z,10.13
2019-04-28T14:03:58.177Z,9.30
2019-04-28T14:06:39.699Z,8.80
2019-04-28T14:09:15.401Z,8.53
2019-04-28T14:11:49.320Z,7.97
2019-04-28T14:14:23.272Z,8.30
2019-04-28T14:16:57.590Z,8.68
2019-04-28T14:19:32.052Z,8.63
2019-04-28T14:22:06.227Z,7.75
2019-04-28T14:27:14.238Z,7.67
2019-04-28T14:29:48.225Z,8.80
2019-04-28T14:32:22.489Z,8.23
2019-04-28T14:34:56.811Z,8.20
2019-04-28T14:37:30.995Z,8.35
2019-04-28T14:42:40.230Z,7.75
2019-04-28T14:45:14.625Z,7.28
2019-04-28T14:47:48.739Z,7.95
2019-04-28T14:52:55.949Z,8.50
2019-04-28T14:55:29.895Z,7.80
2019-04-28T14:58:03.719Z,8.90
2019-04-28T15:00:42.243Z,8.20
2019-04-28T15:03:17.377Z,9.88
2019-04-28T15:06:05.156Z,15.08
2019-04-28T15:08:56.902Z,15.78
2019-04-28T15:11:35.496Z,12.37
2019-04-28T15:14:09.612Z,12.73
2019-04-28T15:19:17.064Z,12.10
2019-04-28T15:21:54.443Z,12.25
2019-04-28T15:24:27.497Z,11.70
2019-04-28T15:27:01.538Z,10.30
2019-04-28T15:32:08.883Z,11.53
2019-04-28T15:37:15.958Z,11.57
2019-04-28T15:42:23.083Z,12.58
2019-04-28T15:44:57.173Z,10.68
2019-04-28T15:50:06.788Z,10.60
2019-04-28T15:52:40.669Z,11.33
2019-04-28T15:55:16.401Z,11.38
2019-04-28T15:57:50.643Z,12.28
2019-04-28T16:00:24.777Z,13.05
2019-04-28T16:05:32.810Z,13.13
2019-04-28T16:08:07.127Z,13.20
2019-04-28T16:10:41.217Z,13.83
2019-04-28T16:15:49.139Z,14.15
2019-04-28T16:18:23.227Z,14.00
2019-04-28T16:23:30.819Z,14.43
2019-04-28T16:26:05.043Z,14.65
2019-04-28T16:28:39.205Z,14.45
2019-04-28T16:31:13.378Z,13.88
2019-04-28T16:33:47.431Z,13.75
2019-04-28T16:38:56.412Z,13.43
2019-04-28T16:41:31.330Z,12.65
2019-04-28T16:44:05.680Z,12.70
2019-04-28T16:46:39.880Z,12.58
2019-04-28T16:49:13.875Z,13.75
2019-04-28T16:51:48.122Z,13.13
2019-04-28T16:54:22.279Z,13.83
2019-04-28T16:57:10.013Z,12.60
2019-04-28T16:59:45.652Z,12.15
2019-04-28T17:02:33.590Z,12.28
2019-04-28T17:05:08.209Z,12.30
2019-04-28T17:07:52.300Z,12.05
2019-04-28T17:10:18.592Z,12.15
2019-04-28T17:12:53.105Z,12.43
2019-04-28T17:15:30.182Z,12.53
2019-04-28T17:18:03.073Z,12.00
2019-04-28T17:23:10.401Z,11.95
2019-04-28T17:28:18.405Z,12.47
2019-04-28T17:30:52.649Z,12.80
2019-04-28T17:33:27.278Z,45.90
2019-04-28T17:36:01.271Z,45.95
2019-04-28T17:41:08.860Z,24.55
2019-04-28T17:43:43.122Z,23.38
2019-04-28T17:46:17.114Z,16.17
2019-04-28T17:51:32.057Z,20.23
2019-04-28T17:54:06.291Z,16.00
2019-04-28T17:56:40.371Z,18.67
2019-04-28T17:59:14.637Z,19.32
2019-04-28T18:02:05.645Z,20.62
2019-04-28T18:04:47.313Z,19.45
2019-04-28T18:07:23.243Z,18.98
2019-04-28T18:09:57.629Z,21.48
2019-04-28T18:12:32.358Z,21.10
2019-04-28T18:15:15.673Z,20.88
2019-04-28T18:17:56.955Z,21.27
2019-04-28T18:20:31.446Z,20.82
2019-04-28T18:23:05.547Z,22.45
2019-04-28T18:28:12.678Z,21.97
2019-04-28T18:30:48.434Z,22.82
2019-04-28T18:33:32.972Z,23.12
2019-04-28T18:36:14.422Z,23.15
2019-04-28T18:38:56.049Z,23.52
2019-04-28T18:41:40.274Z,23.67
2019-04-28T18:44:18.490Z,25.88
2019-04-28T18:46:52.673Z,25.10
2019-04-28T18:49:26.910Z,25.68
2019-04-28T18:52:00.900Z,26.20
2019-04-28T18:54:35.212Z,24.67
2019-04-28T18:57:09.188Z,27.10
2019-04-28T18:59:43.396Z,26.95
2019-04-28T19:02:27.567Z,27.82
2019-04-28T19:05:01.681Z,28.60
2019-04-28T19:10:15.085Z,30.32
2019-04-28T19:12:50.589Z,29.02
2019-04-28T19:15:41.231Z,30.88
2019-04-28T19:18:25.554Z,30.62
2019-04-28T19:20:59.823Z,30.80
2019-04-28T19:23:35.247Z,30.95
2019-04-28T19:26:09.434Z,30.80
2019-04-28T19:28:43.416Z,30.55
2019-04-28T19:31:18.015Z,31.23
2019-04-28T19:33:52.096Z,31.90
2019-04-28T19:39:03.590Z,31.25
2019-04-28T19:41:35.591Z,32.38
2019-04-28T19:44:09.845Z,33.23
2019-04-28T19:46:44.058Z,32.88
2019-04-28T19:49:18.197Z,33.88
2019-04-28T19:54:27.598Z,32.08
2019-04-28T19:57:06.160Z,32.83
2019-04-28T19:59:57.949Z,32.67
2019-04-28T20:02:33.511Z,32.25
2019-04-28T20:05:08.682Z,33.85
2019-04-28T20:07:42.977Z,31.93
2019-04-28T20:10:17.277Z,31.62
2019-04-28T20:12:51.265Z,32.45
2019-04-28T20:15:25.499Z,33.13
2019-04-28T20:17:59.949Z,32.93
2019-04-28T20:20:34.063Z,34.05
2019-04-28T20:25:42.104Z,31.82
2019-04-28T20:28:16.409Z,33.88
2019-04-28T20:30:50.630Z,34.40
2019-04-28T20:33:24.847Z,33.80
2019-04-28T20:36:16.803Z,34.20
2019-04-28T20:38:52.988Z,34.15
2019-04-28T20:41:28.726Z,33.50
2019-04-28T20:44:03.010Z,34.45
2019-04-28T20:46:37.139Z,34.20
2019-04-28T20:51:44.905Z,34.00
2019-04-28T20:56:52.547Z,34.45
2019-04-28T20:59:26.632Z,34.65
2019-04-28T21:04:34.216Z,33.67
2019-04-28T21:07:08.175Z,33.98
2019-04-28T21:09:42.430Z,35.25
2019-04-28T21:12:16.539Z,35.55
2019-04-28T21:17:24.418Z,34.80
2019-04-28T21:22:31.948Z,33.78
2019-04-28T21:25:06.763Z,36.35
2019-04-28T21:27:40.815Z,35.65
2019-04-28T21:32:48.575Z,35.80
2019-04-28T21:37:55.954Z,35.40
2019-04-28T21:40:30.325Z,35.83
2019-04-28T21:43:12.014Z,35.78
2019-04-28T21:45:50.367Z,35.17
2019-04-28T21:48:40.312Z,34.35
2019-04-28T21:51:14.201Z,34.55
2019-04-28T21:53:48.311Z,34.18
2019-04-28T21:56:22.393Z,35.03
2019-04-28T22:01:29.764Z,33.48
2019-04-28T22:04:04.387Z,34.23
2019-04-28T22:06:38.296Z,35.03
2019-04-28T22:09:12.649Z,34.50
2019-04-28T22:11:46.638Z,34.75
2019-04-28T22:16:54.024Z,35.28
2019-04-28T22:22:01.232Z,34.58
2019-04-28T22:27:11.254Z,34.58
2019-04-28T22:29:45.287Z,36.23
2019-04-28T22:34:52.593Z,34.65
2019-04-28T22:39:59.758Z,35.03
2019-04-28T22:45:08.336Z,34.40
2019-04-28T22:47:42.499Z,34.90
2019-04-28T22:50:36.642Z,36.05
2019-04-28T22:53:10.750Z,36.65
2019-04-28T23:01:13.798Z,34.60
2019-04-28T23:03:52.240Z,35.20
2019-04-28T23:06:26.243Z,34.95
2019-04-28T23:11:33.564Z,35.48
2019-04-28T23:16:40.805Z,36.03
2019-04-28T23:21:57.592Z,34.98
2019-04-28T23:24:31.779Z,35.13
2019-04-28T23:27:05.708Z,35.28
2019-04-28T23:29:39.617Z,35.28
2019-04-28T23:32:13.678Z,35.68
2019-04-28T23:37:21.249Z,35.10
2019-04-28T23:39:55.392Z,36.42
2019-04-28T23:42:33.884Z,37.10
2019-04-28T23:45:08.280Z,36.65
2019-04-28T23:47:42.444Z,35.85
2019-04-28T23:50:18.173Z,36.05
2019-04-28T23:52:56.375Z,35.98
2019-04-28T23:55:30.373Z,36.42
